Time;durP1;ratioP1;P1;durP2;ratioP2;P2;SDS_P1;SDS_P2;PMS_P1;PMS_P2;Temp;Humidity;BMP_temperature;BMP_pressure;BME280_temperature;BME280_humidity;BME280_pressure;Samples;Min_cycle;Max_cycle;Signal;HPM_P1;HPM_P2
2023/10/01 00:02:10;;;;;;;1.15;1.15;;;;;;;;;;4998494;28;20512;-20
2023/10/01 00:04:36;;;;;;;1.40;1.30;;;;;;;;;;4998193;28;20050;-21
2023/10/01 00:07:02;;;;;;;1.40;1.30;;;;;;;;;;4998442;28;20026;-21
2023/10/01 00:09:31;;;;;;;1.25;1.20;;;;;;;;;;4998346;28;20045;-19
2023/10/01 00:11:58;;;;;;;1.30;1.20;;;;;;;;;;4998306;28;20021;-21
2023/10/01 00:14:25;;;;;;;1.42;1.33;;;;;;;;;;4998306;28;20018;-21
2023/10/01 00:16:51;;;;;;;1.42;1.33;;;;;;;;;;4998257;28;20023;-21
2023/10/01 00:19:17;;;;;;;1.92;1.83;;;;;;;;;;4998477;28;20030;-22
2023/10/01 00:21:43;;;;;;;1.85;1.20;;;;;;;;;;4998501;28;20030;-21
2023/10/01 00:24:09;;;;;;;1.35;1.25;;;;;;;;;;4998014;28;20027;-20
2023/10/01 00:26:36;;;;;;;1.27;1.10;;;;;;;;;;4998374;28;20034;-19
2023/10/01 00:29:03;;;;;;;1.75;1.27;;;;;;;;;;4997969;28;20022;-18
2023/10/01 00:31:30;;;;;;;1.30;1.20;;;;;;;;;;4998029;28;20027;-21
2023/10/01 00:33:56;;;;;;;1.25;1.20;;;;;;;;;;4997830;28;20089;-20
2023/10/01 00:36:23;;;;;;;1.52;1.30;;;;;;;;;;4997962;28;20033;-19
2023/10/01 00:38:49;;;;;;;1.80;1.70;;;;;;;;;;4998113;28;20044;-18
2023/10/01 00:41:15;;;;;;;1.50;1.40;;;;;;;;;;4980754;28;20485;-17
2023/10/01 00:43:41;;;;;;;1.30;1.20;;;;;;;;;;4997675;28;20109;-20
2023/10/01 00:46:08;;;;;;;2.05;1.90;;;;;;;;;;4997763;28;20454;-21
2023/10/01 00:48:36;;;;;;;1.60;1.50;;;;;;;;;;4980909;28;20022;-22
2023/10/01 00:51:05;;;;;;;3.13;1.25;;;;;;;;;;4997630;28;20103;-18
2023/10/01 00:53:32;;;;;;;1.63;1.52;;;;;;;;;;4996999;28;20085;-18
2023/10/01 00:56:00;;;;;;;1.02;0.93;;;;;;;;;;4997398;28;20023;-21
2023/10/01 00:58:26;;;;;;;2.13;1.30;;;;;;;;;;4997807;28;20106;-24
2023/10/01 01:00:52;;;;;;;1.42;1.13;;;;;;;;;;4997431;28;20031;-22
2023/10/01 01:03:22;;;;;;;1.52;1.40;;;;;;;;;;4976731;28;20038;-20
2023/10/01 01:08:33;;;;;;;1.38;1.27;;;;;;;;;;4977943;28;20401;-21
2023/10/01 01:11:01;;;;;;;1.20;1.10;;;;;;;;;;4978179;28;20458;-21
2023/10/01 01:13:29;;;;;;;1.20;1.10;;;;;;;;;;4978014;28;20038;-20
2023/10/01 01:15:57;;;;;;;1.35;1.25;;;;;;;;;;4978030;28;20366;-24
2023/10/01 01:18:26;;;;;;;0.98;0.98;;;;;;;;;;4977734;28;20023;-20
2023/10/01 01:20:58;;;;;;;1.50;1.40;;;;;;;;;;4977966;28;20498;-20
2023/10/01 01:23:24;;;;;;;1.30;1.20;;;;;;;;;;4977803;28;20027;-20
2023/10/01 01:25:52;;;;;;;1.23;1.17;;;;;;;;;;4976669;28;20434;-19
2023/10/01 01:28:27;;;;;;;0.93;0.93;;;;;;;;;;4977598;28;20382;-24
2023/10/01 01:30:53;;;;;;;1.48;1.10;;;;;;;;;;4978048;28;20490;-18
2023/10/01 01:33:26;;;;;;;1.33;1.23;;;;;;;;;;4977513;28;20027;-22
2023/10/01 01:35:54;;;;;;;1.45;1.35;;;;;;;;;;4977425;28;20524;-19
2023/10/01 01:38:23;;;;;;;1.20;1.10;;;;;;;;;;4977387;28;20399;-20
2023/10/01 01:40:51;;;;;;;1.42;1.15;;;;;;;;;;4977288;28;20425;-20
2023/10/01 01:43:23;;;;;;;1.40;1.30;;;;;;;;;;4977134;28;20446;-18
2023/10/01 01:45:54;;;;;;;1.55;1.45;;;;;;;;;;4977520;28;20358;-20
2023/10/01 01:48:34;;;;;;;1.30;1.20;;;;;;;;;;4977508;28;20443;-19
2023/10/01 01:51:00;;;;;;;1.30;1.20;;;;;;;;;;4977424;28;20037;-23
2023/10/01 01:53:41;;;;;;;1.15;1.13;;;;;;;;;;4976979;28;20041;-24
2023/10/01 01:56:08;;;;;;;1.63;1.37;;;;;;;;;;4977575;28;20027;-19
2023/10/01 01:58:35;;;;;;;1.25;1.15;;;;;;;;;;4977216;28;20023;-19
2023/10/01 02:01:08;;;;;;;1.20;1.10;;;;;;;;;;4977158;28;20101;-20
2023/10/01 02:03:37;;;;;;;1.30;1.20;;;;;;;;;;4981985;28;20043;-21
2023/10/01 02:06:06;;;;;;;1.13;1.02;;;;;;;;;;4995226;28;20046;-17
2023/10/01 02:08:35;;;;;;;1.58;1.48;;;;;;;;;;4996170;28;20102;-20
2023/10/01 02:11:04;;;;;;;1.00;1.00;;;;;;;;;;4979027;28;20465;-22
2023/10/01 02:13:32;;;;;;;1.20;1.20;;;;;;;;;;4995989;28;20114;-19
2023/10/01 02:16:18;;;;;;;1.38;1.25;;;;;;;;;;4996335;28;20030;-21
2023/10/01 02:18:55;;;;;;;1.40;1.30;;;;;;;;;;4995870;28;20030;-17
2023/10/01 02:21:43;;;;;;;1.25;1.15;;;;;;;;;;4996283;28;20034;-20
2023/10/01 02:24:14;;;;;;;1.20;1.10;;;;;;;;;;4996102;28;20030;-22
2023/10/01 02:26:40;;;;;;;1.15;1.10;;;;;;;;;;4995869;28;20462;-18
2023/10/01 02:29:08;;;;;;;1.30;1.20;;;;;;;;;;4995839;28;20045;-21
2023/10/01 02:31:39;;;;;;;1.55;1.20;;;;;;;;;;4978724;28;20436;-22
2023/10/01 02:34:10;;;;;;;1.15;1.10;;;;;;;;;;4996002;28;20038;-20
2023/10/01 02:36:37;;;;;;;1.42;1.20;;;;;;;;;;4995722;28;20037;-19
2023/10/01 02:39:11;;;;;;;1.50;1.40;;;;;;;;;;4995618;28;20076;-20
2023/10/01 02:41:40;;;;;;;1.38;1.27;;;;;;;;;;4995990;28;20092;-19
2023/10/01 02:44:11;;;;;;;1.35;1.25;;;;;;;;;;4995489;28;20022;-20
2023/10/01 02:46:37;;;;;;;1.52;1.42;;;;;;;;;;4995617;28;20029;-21
2023/10/01 02:49:04;;;;;;;1.20;1.10;;;;;;;;;;4995759;28;20022;-19
2023/10/01 02:51:37;;;;;;;1.52;1.42;;;;;;;;;;4996065;28;20490;-20
2023/10/01 02:54:06;;;;;;;1.20;1.10;;;;;;;;;;4995344;28;20038;-19
2023/10/01 02:56:33;;;;;;;1.38;1.27;;;;;;;;;;4979183;28;20030;-20
2023/10/01 02:59:09;;;;;;;1.30;1.20;;;;;;;;;;4995641;28;20056;-20
2023/10/01 03:01:38;;;;;;;1.02;1.02;;;;;;;;;;4995668;28;20031;-18
2023/10/01 03:04:10;;;;;;;1.17;1.08;;;;;;;;;;4995058;28;20052;-21
2023/10/01 03:06:42;;;;;;;1.33;1.23;;;;;;;;;;4995607;28;20023;-21
2023/10/01 03:09:22;;;;;;;1.45;1.08;;;;;;;;;;4995905;28;20134;-19
2023/10/01 03:11:53;;;;;;;1.40;1.17;;;;;;;;;;4978136;28;20369;-20
2023/10/01 03:14:26;;;;;;;;;;;;;;;;;;4995937;28;20074;-18
2023/10/01 03:16:53;;;;;;;1.33;0.93;;;;;;;;;;4994788;28;19905;-18
2023/10/01 03:19:26;;;;;;;0.90;0.90;;;;;;;;;;4995481;28;20077;-19
2023/10/01 03:22:15;;;;;;;1.15;1.05;;;;;;;;;;4995655;28;20038;-22
2023/10/01 03:24:45;;;;;;;1.30;1.20;;;;;;;;;;4995309;28;20030;-21
2023/10/01 03:27:27;;;;;;;1.30;1.20;;;;;;;;;;4995187;28;20041;-21
2023/10/01 03:30:20;;;;;;;1.15;1.05;;;;;;;;;;4995082;28;20066;-23
2023/10/01 03:32:46;;;;;;;1.73;1.50;;;;;;;;;;4995272;28;20356;-19
2023/10/01 03:35:12;;;;;;;1.25;1.15;;;;;;;;;;4995600;28;20073;-20
2023/10/01 03:37:39;;;;;;;1.50;1.40;;;;;;;;;;4995292;28;20402;-20
2023/10/01 03:40:18;;;;;;;1.10;1.00;;;;;;;;;;4995283;28;20030;-19
2023/10/01 03:42:51;;;;;;;1.20;1.10;;;;;;;;;;4995151;28;20030;-21
2023/10/01 03:48:07;;;;;;;1.48;1.30;;;;;;;;;;4994931;28;20023;-22
2023/10/01 03:50:45;;;;;;;1.13;1.10;;;;;;;;;;4994340;28;20034;-21
2023/10/01 03:53:11;;;;;;;0.80;0.80;;;;;;;;;;4995098;28;20065;-19
2023/10/01 03:55:39;;;;;;;1.38;1.27;;;;;;;;;;4994894;28;20062;-20
2023/10/01 03:58:18;;;;;;;1.40;1.30;;;;;;;;;;4994857;28;20022;-20
2023/10/01 04:00:53;;;;;;;1.27;1.17;;;;;;;;;;4995129;28;20030;-18
2023/10/01 04:03:21;;;;;;;1.20;1.10;;;;;;;;;;4974174;28;20043;-21
2023/10/01 04:05:47;;;;;;;1.50;1.40;;;;;;;;;;4975657;28;20019;-21
2023/10/01 04:08:14;;;;;;;1.40;1.30;;;;;;;;;;4975619;28;20034;-21
2023/10/01 04:10:48;;;;;;;1.15;1.05;;;;;;;;;;4975350;28;20027;-20
2023/10/01 04:15:47;;;;;;;1.35;1.13;;;;;;;;;;4975900;28;20070;-18
2023/10/01 04:20:48;;;;;;;1.38;1.27;;;;;;;;;;4975250;28;20030;-20
2023/10/01 04:23:21;;;;;;;1.17;1.08;;;;;;;;;;4975003;28;20089;-21
2023/10/01 04:25:51;;;;;;;1.40;1.30;;;;;;;;;;4975492;28;20109;-20
2023/10/01 04:28:20;;;;;;;1.30;1.00;;;;;;;;;;4975441;28;20105;-20
2023/10/01 04:30:51;;;;;;;1.70;1.10;;;;;;;;;;4978153;28;20030;-20
2023/10/01 04:33:17;;;;;;;1.15;1.15;;;;;;;;;;4978544;28;20031;-19
2023/10/01 04:35:51;;;;;;;1.35;1.25;;;;;;;;;;4978774;28;20105;-20
2023/10/01 04:38:21;;;;;;;1.30;1.20;;;;;;;;;;4978751;28;20090;-23
2023/10/01 04:40:48;;;;;;;1.48;1.38;;;;;;;;;;4978944;28;20086;-21
2023/10/01 04:43:16;;;;;;;1.30;1.20;;;;;;;;;;4978497;28;20050;-21
2023/10/01 04:45:45;;;;;;;1.35;1.00;;;;;;;;;;4978316;28;20054;-24
2023/10/01 04:48:24;;;;;;;1.50;1.40;;;;;;;;;;4978301;28;20049;-18
2023/10/01 04:50:54;;;;;;;1.40;1.30;;;;;;;;;;4978549;28;20051;-20
2023/10/01 04:53:22;;;;;;;1.30;1.08;;;;;;;;;;4978477;28;20418;-21
2023/10/01 04:56:00;;;;;;;1.25;1.15;;;;;;;;;;4977299;28;20034;-19
2023/10/01 04:58:26;;;;;;;1.45;1.35;;;;;;;;;;4978408;28;20034;-21
2023/10/01 05:00:54;;;;;;;1.50;1.40;;;;;;;;;;4978598;28;20465;-20
2023/10/01 05:03:36;;;;;;;1.15;1.05;;;;;;;;;;4981205;28;20108;-22
2023/10/01 05:06:02;;;;;;;1.13;1.08;;;;;;;;;;4998015;28;20022;-19
2023/10/01 05:08:38;;;;;;;1.27;1.17;;;;;;;;;;4997669;28;20346;-20
2023/10/01 05:11:13;;;;;;;1.48;1.38;;;;;;;;;;4997335;28;20026;-20
2023/10/01 05:13:40;;;;;;;1.23;1.13;;;;;;;;;;4997508;28;20393;-21
2023/10/01 05:16:07;;;;;;;1.38;1.27;;;;;;;;;;4997196;28;20084;-18
2023/10/01 05:18:34;;;;;;;1.15;1.10;;;;;;;;;;4980024;28;20026;-19
2023/10/01 05:21:04;;;;;;;1.30;1.20;;;;;;;;;;4997866;28;20132;-17
2023/10/01 05:23:30;;;;;;;1.17;1.05;;;;;;;;;;4997087;28;20022;-20
2023/10/01 05:25:56;;;;;;;1.23;1.13;;;;;;;;;;4997044;28;20030;-20
2023/10/01 05:28:34;;;;;;;1.15;1.02;;;;;;;;;;4996998;28;20026;-22
2023/10/01 05:31:00;;;;;;;1.00;1.00;;;;;;;;;;4997260;28;20026;-19
2023/10/01 05:33:32;;;;;;;1.33;1.23;;;;;;;;;;4996864;28;20093;-19
2023/10/01 05:36:03;;;;;;;1.40;1.30;;;;;;;;;;4996860;28;20472;-20
2023/10/01 05:38:33;;;;;;;;;;;;;;;;;;4997226;28;20030;-20
2023/10/01 05:41:03;;;;;;;1.05;0.95;;;;;;;;;;4996710;28;19909;-19
2023/10/01 05:43:35;;;;;;;1.55;1.13;;;;;;;;;;4996629;28;20033;-20
2023/10/01 05:46:02;;;;;;;1.25;1.15;;;;;;;;;;4996683;28;20110;-23
2023/10/01 05:48:32;;;;;;;1.17;1.08;;;;;;;;;;4996640;28;20030;-21
2023/10/01 05:50:59;;;;;;;1.55;1.42;;;;;;;;;;4997187;28;20522;-19
2023/10/01 05:53:25;;;;;;;1.27;1.17;;;;;;;;;;4996402;28;20118;-16
2023/10/01 05:55:51;;;;;;;1.30;1.20;;;;;;;;;;4996759;28;20033;-21
2023/10/01 05:58:17;;;;;;;1.15;1.05;;;;;;;;;;4996459;28;20357;-19
2023/10/01 06:00:45;;;;;;;1.27;1.17;;;;;;;;;;4996385;28;20053;-20
2023/10/01 06:03:15;;;;;;;1.60;1.30;;;;;;;;;;4996178;28;20354;-19
2023/10/01 06:08:25;;;;;;;1.20;1.10;;;;;;;;;;4996265;28;20030;-24
2023/10/01 06:11:09;;;;;;;1.27;1.17;;;;;;;;;;4996186;28;20026;-21
2023/10/01 06:13:37;;;;;;;0.82;0.82;;;;;;;;;;4996076;28;20089;-19
2023/10/01 06:16:16;;;;;;;1.20;0.98;;;;;;;;;;4996338;28;20034;-21
2023/10/01 06:18:51;;;;;;;1.10;0.90;;;;;;;;;;4978916;28;20481;-20
2023/10/01 06:21:18;;;;;;;0.90;0.90;;;;;;;;;;4995964;28;20113;-22
2023/10/01 06:23:50;;;;;;;1.20;1.10;;;;;;;;;;4996346;28;20424;-19
2023/10/01 06:26:20;;;;;;;1.10;1.10;;;;;;;;;;4996210;28;20049;-21
2023/10/01 06:28:47;;;;;;;0.93;0.93;;;;;;;;;;4995798;28;20092;-20
2023/10/01 06:31:17;;;;;;;1.50;1.40;;;;;;;;;;4995842;28;20413;-18
2023/10/01 06:33:44;;;;;;;1.40;1.27;;;;;;;;;;4996243;28;20037;-20
2023/10/01 06:36:21;;;;;;;1.40;1.20;;;;;;;;;;4996059;28;20365;-22
2023/10/01 06:38:47;;;;;;;1.33;1.23;;;;;;;;;;4995687;28;20141;-21
2023/10/01 06:41:25;;;;;;;1.13;0.98;;;;;;;;;;4995650;28;20038;-20
2023/10/01 06:43:56;;;;;;;1.40;1.30;;;;;;;;;;4995811;28;20096;-22
2023/10/01 06:46:23;;;;;;;1.55;1.45;;;;;;;;;;4995653;28;20496;-21
2023/10/01 06:48:50;;;;;;;1.50;1.40;;;;;;;;;;4995887;28;20084;-19
2023/10/01 06:51:21;;;;;;;1.10;1.00;;;;;;;;;;4995279;28;20114;-20
2023/10/01 06:53:47;;;;;;;;;;;;;;;;;;4995611;28;20030;-20
2023/10/01 06:56:17;;;;;;;1.27;1.17;;;;;;;;;;4995742;28;19933;-18
2023/10/01 06:59:32;;;;;;;1.13;1.02;;;;;;;;;;4995383;28;20030;-19
2023/10/01 07:01:34;;;;;;;1.17;1.08;;;;;;;;;;4984944;28;20038;-22
2023/10/01 07:04:01;;;;;;;1.30;1.20;;;;;;;;;;4995034;28;20050;-19
2023/10/01 07:06:28;;;;;;;1.23;1.10;;;;;;;;;;4995355;28;20026;-21
2023/10/01 07:08:54;;;;;;;0.70;0.70;;;;;;;;;;4995833;28;20018;-21
2023/10/01 07:11:21;;;;;;;1.45;1.13;;;;;;;;;;4995851;28;20094;-20
2023/10/01 07:13:52;;;;;;;1.20;1.10;;;;;;;;;;4995121;28;20030;-21
2023/10/01 07:16:35;;;;;;;1.40;1.30;;;;;;;;;;4995264;28;20475;-20
2023/10/01 07:19:02;;;;;;;1.75;1.40;;;;;;;;;;4995221;28;20339;-21
2023/10/01 07:21:29;;;;;;;1.15;1.08;;;;;;;;;;4995155;28;20037;-20
2023/10/01 07:23:55;;;;;;;1.20;1.10;;;;;;;;;;4995573;28;20030;-20
2023/10/01 07:26:22;;;;;;;1.45;1.35;;;;;;;;;;4995171;28;20081;-21
2023/10/01 07:28:56;;;;;;;1.40;1.30;;;;;;;;;;4995059;28;20034;-22
2023/10/01 07:31:24;;;;;;;1.20;1.10;;;;;;;;;;4995452;28;20026;-22
2023/10/01 07:33:53;;;;;;;1.17;1.08;;;;;;;;;;4995040;28;20049;-18
2023/10/01 07:36:19;;;;;;;1.40;1.27;;;;;;;;;;4995323;28;20034;-19
2023/10/01 07:38:49;;;;;;;0.98;0.98;;;;;;;;;;4995052;28;20053;-19
2023/10/01 07:41:20;;;;;;;1.10;1.10;;;;;;;;;;4994933;28;20030;-20
2023/10/01 07:43:46;;;;;;;1.15;1.00;;;;;;;;;;4994886;28;20022;-21
2023/10/01 07:46:14;;;;;;;1.13;1.08;;;;;;;;;;4995225;28;20353;-20
2023/10/01 07:48:47;;;;;;;1.52;1.17;;;;;;;;;;4995221;28;20347;-21
2023/10/01 07:51:28;;;;;;;1.42;1.33;;;;;;;;;;4994953;28;20044;-20
2023/10/01 07:53:59;;;;;;;1.15;1.15;;;;;;;;;;4995396;28;20030;-21
2023/10/01 07:56:25;;;;;;;1.00;1.00;;;;;;;;;;4995700;28;20062;-21
2023/10/01 08:01:37;;;;;;;1.33;1.23;;;;;;;;;;4995402;28;20042;-20
2023/10/01 08:04:06;;;;;;;1.02;1.02;;;;;;;;;;4996510;28;20053;-18
2023/10/01 08:06:41;;;;;;;1.50;1.40;;;;;;;;;;4998757;28;20463;-20
2023/10/01 08:09:12;;;;;;;1.50;1.35;;;;;;;;;;4998504;28;20469;-18
2023/10/01 08:14:26;;;;;;;1.33;1.23;;;;;;;;;;4998483;28;20477;-21
2023/10/01 08:16:53;;;;;;;1.50;1.20;;;;;;;;;;4998566;28;20030;-21
2023/10/01 08:19:20;;;;;;;1.42;1.33;;;;;;;;;;4998855;28;20080;-22
2023/10/01 08:21:53;;;;;;;1.05;1.00;;;;;;;;;;4998264;28;20022;-21
2023/10/01 08:24:20;;;;;;;1.30;1.20;;;;;;;;;;4998726;28;20060;-18
2023/10/01 08:27:01;;;;;;;1.50;1.40;;;;;;;;;;4981036;28;20417;-19
2023/10/01 08:29:59;;;;;;;1.30;1.20;;;;;;;;;;4998506;28;20026;-20
2023/10/01 08:32:22;;;;;;;1.50;1.40;;;;;;;;;;4997847;28;20121;-18
2023/10/01 08:35:01;;;;;;;1.77;1.35;;;;;;;;;;4998346;28;20390;-19
2023/10/01 08:37:31;;;;;;;1.30;1.20;;;;;;;;;;4998332;28;20052;-20
2023/10/01 08:40:00;;;;;;;1.50;1.40;;;;;;;;;;4997980;28;20026;-21
2023/10/01 08:42:30;;;;;;;1.05;0.95;;;;;;;;;;4998069;28;20374;-17
2023/10/01 08:45:04;;;;;;;1.73;1.63;;;;;;;;;;4997750;28;20030;-21
2023/10/01 08:47:31;;;;;;;0.93;0.90;;;;;;;;;;4998146;28;20033;-18
2023/10/01 08:52:56;;;;;;;1.42;1.25;;;;;;;;;;4997679;28;20361;-21
2023/10/01 08:55:35;;;;;;;1.42;1.25;;;;;;;;;;4997975;28;20389;-20
2023/10/01 09:01:10;;;;;;;1.42;1.33;;;;;;;;;;4997894;28;20512;-19
2023/10/01 09:03:36;;;;;;;1.27;1.17;;;;;;;;;;4997195;28;20046;-20
2023/10/01 09:06:04;;;;;;;1.45;1.35;;;;;;;;;;4997512;28;20026;-21
2023/10/01 09:08:31;;;;;;;1.60;1.50;;;;;;;;;;4997724;28;20349;-19
2023/10/01 09:11:00;;;;;;;1.60;1.50;;;;;;;;;;4997316;28;20454;-19
2023/10/01 09:13:30;;;;;;;1.63;1.52;;;;;;;;;;4997511;28;20130;-20
2023/10/01 09:16:08;;;;;;;1.55;1.38;;;;;;;;;;4996624;28;20109;-21
2023/10/01 09:18:37;;;;;;;1.50;1.40;;;;;;;;;;4997536;28;20026;-19
2023/10/01 09:21:20;;;;;;;1.38;1.27;;;;;;;;;;4997171;28;20121;-18
2023/10/01 09:23:54;;;;;;;1.35;1.25;;;;;;;;;;4997230;28;20042;-23
2023/10/01 09:26:42;;;;;;;2.17;1.85;;;;;;;;;;4997392;28;20022;-22
2023/10/01 09:29:21;;;;;;;1.05;0.95;;;;;;;;;;4997312;28;20342;-20
2023/10/01 09:31:58;;;;;;;1.23;1.15;;;;;;;;;;4996920;28;20026;-19
2023/10/01 09:34:34;;;;;;;1.33;1.23;;;;;;;;;;4996911;28;20026;-20
2023/10/01 09:37:17;;;;;;;1.50;1.40;;;;;;;;;;4997147;28;20022;-19
2023/10/01 09:39:44;;;;;;;1.48;1.38;;;;;;;;;;4997118;28;20374;-20
2023/10/01 09:42:24;;;;;;;1.60;1.48;;;;;;;;;;4996676;28;20030;-20
2023/10/01 09:44:52;;;;;;;1.73;1.40;;;;;;;;;;4996988;28;20061;-18
2023/10/01 09:47:23;;;;;;;1.50;1.40;;;;;;;;;;4996995;28;20449;-20
2023/10/01 09:49:51;;;;;;;1.38;1.27;;;;;;;;;;4996934;28;20034;-20
2023/10/01 09:52:27;;;;;;;1.88;1.50;;;;;;;;;;4996759;28;20038;-19
2023/10/01 09:55:03;;;;;;;1.70;1.60;;;;;;;;;;4996820;28;20038;-18
2023/10/01 09:57:34;;;;;;;1.40;1.30;;;;;;;;;;4996849;28;20037;-21
2023/10/01 10:00:21;;;;;;;1.52;1.33;;;;;;;;;;4996770;28;20026;-20
2023/10/01 10:02:53;;;;;;;1.45;1.35;;;;;;;;;;4996652;28;20053;-19
2023/10/01 10:05:26;;;;;;;1.77;1.65;;;;;;;;;;4996126;28;20046;-21
2023/10/01 10:07:56;;;;;;;1.67;1.58;;;;;;;;;;4996318;28;20414;-19
2023/10/01 10:10:26;;;;;;;4.35;1.90;;;;;;;;;;4979094;28;20026;-23
2023/10/01 10:12:56;;;;;;;1.50;1.40;;;;;;;;;;4996075;28;20036;-20
2023/10/01 10:15:46;;;;;;;1.83;1.67;;;;;;;;;;4979019;28;20038;-19
2023/10/01 10:18:15;;;;;;;2.30;1.70;;;;;;;;;;4996654;28;20130;-20
2023/10/01 10:20:57;;;;;;;1.27;1.20;;;;;;;;;;4996081;28;20031;-18
2023/10/01 10:23:29;;;;;;;2.10;1.90;;;;;;;;;;4979075;28;20532;-18
2023/10/01 10:26:12;;;;;;;1.70;1.60;;;;;;;;;;4995749;28;20030;-17
2023/10/01 10:28:58;;;;;;;1.65;1.55;;;;;;;;;;4995508;28;20093;-19
2023/10/01 10:31:29;;;;;;;1.70;1.60;;;;;;;;;;4996065;28;20031;-21
2023/10/01 10:34:29;;;;;;;1.50;1.40;;;;;;;;;;4996073;28;20026;-23
2023/10/01 10:36:57;;;;;;;1.48;1.38;;;;;;;;;;4996047;28;20037;-22
2023/10/01 10:39:42;;;;;;;1.35;1.25;;;;;;;;;;4995991;28;20358;-22
2023/10/01 10:42:29;;;;;;;1.33;1.20;;;;;;;;;;4995848;28;20504;-22
2023/10/01 10:45:20;;;;;;;2.00;1.30;;;;;;;;;;4995849;28;20442;-25
2023/10/01 10:47:58;;;;;;;1.80;1.70;;;;;;;;;;4995915;28;20062;-19
2023/10/01 10:50:46;;;;;;;1.50;1.40;;;;;;;;;;4995905;28;20357;-18
2023/10/01 10:53:15;;;;;;;1.88;1.67;;;;;;;;;;4996486;28;20030;-25
2023/10/01 10:55:54;;;;;;;1.77;1.67;;;;;;;;;;4995729;28;20081;-21
2023/10/01 10:58:20;;;;;;;2.17;1.70;;;;;;;;;;4995724;28;20109;-18
2023/10/01 11:00:49;;;;;;;1.50;1.40;;;;;;;;;;4995440;28;20092;-22
2023/10/01 11:03:16;;;;;;;1.48;1.38;;;;;;;;;;4995064;28;20026;-20
2023/10/01 11:05:52;;;;;;;1.77;1.67;;;;;;;;;;4995666;28;20061;-21
2023/10/01 11:08:28;;;;;;;1.52;1.42;;;;;;;;;;4995941;28;20037;-18
2023/10/01 11:10:55;;;;;;;1.70;1.60;;;;;;;;;;4995559;28;20081;-19
2023/10/01 11:13:37;;;;;;;1.95;1.85;;;;;;;;;;4995499;28;20105;-17
2023/10/01 11:16:14;;;;;;;2.00;1.90;;;;;;;;;;4995497;28;20040;-19
2023/10/01 11:18:47;;;;;;;1.65;1.55;;;;;;;;;;4995256;28;20490;-19
2023/10/01 11:21:31;;;;;;;1.52;1.38;;;;;;;;;;4995206;28;20037;-18
2023/10/01 11:24:00;;;;;;;1.95;1.73;;;;;;;;;;4995308;28;20097;-21
2023/10/01 11:26:27;;;;;;;1.77;1.65;;;;;;;;;;4995205;28;20454;-19
2023/10/01 11:29:00;;;;;;;2.50;1.77;;;;;;;;;;4995093;28;20038;-21
2023/10/01 11:31:28;;;;;;;2.10;1.90;;;;;;;;;;4995421;28;20038;-20
2023/10/01 11:34:30;;;;;;;1.88;1.77;;;;;;;;;;4994964;28;20057;-25
2023/10/01 11:36:57;;;;;;;1.80;1.67;;;;;;;;;;4995296;28;20413;-19
2023/10/01 11:39:40;;;;;;;2.30;1.70;;;;;;;;;;4997945;28;20085;-25
2023/10/01 11:42:19;;;;;;;1.85;1.67;;;;;;;;;;4999220;28;20026;-20
2023/10/01 11:44:52;;;;;;;2.20;2.05;;;;;;;;;;4998850;28;20030;-18
2023/10/01 11:47:31;;;;;;;1.88;1.77;;;;;;;;;;4998893;28;20033;-18
2023/10/01 11:50:11;;;;;;;1.77;1.67;;;;;;;;;;4999642;28;20036;-20
2023/10/01 11:52:40;;;;;;;1.80;1.70;;;;;;;;;;4998772;28;20037;-18
2023/10/01 11:55:23;;;;;;;1.92;1.83;;;;;;;;;;4999018;28;20416;-20
2023/10/01 11:57:52;;;;;;;1.92;1.80;;;;;;;;;;4999036;28;20373;-21
2023/10/01 12:00:33;;;;;;;1.90;1.75;;;;;;;;;;4998983;28;20030;-17
2023/10/01 12:02:59;;;;;;;1.98;1.83;;;;;;;;;;4998869;28;20073;-18
2023/10/01 12:05:38;;;;;;;2.50;2.30;;;;;;;;;;4998357;28;20096;-19
2023/10/01 12:08:05;;;;;;;2.28;2.08;;;;;;;;;;4998838;28;20061;-21
2023/10/01 12:10:37;;;;;;;1.90;1.73;;;;;;;;;;4998465;28;20173;-21
2023/10/01 12:13:06;;;;;;;2.17;1.90;;;;;;;;;;4998668;28;20018;-18
2023/10/01 12:15:37;;;;;;;1.85;1.75;;;;;;;;;;4998677;28;20053;-20
2023/10/01 12:18:07;;;;;;;2.13;1.92;;;;;;;;;;4982048;28;20066;-20
2023/10/01 12:20:39;;;;;;;1.83;1.63;;;;;;;;;;4999136;28;20334;-19
2023/10/01 12:25:58;;;;;;;2.42;2.05;;;;;;;;;;4998224;28;20371;-21
2023/10/01 12:28:28;;;;;;;1.77;1.67;;;;;;;;;;4998753;28;20298;-20
2023/10/01 12:30:57;;;;;;;1.92;1.83;;;;;;;;;;4980890;28;20170;-20
2023/10/01 12:33:24;;;;;;;1.98;1.63;;;;;;;;;;4998134;28;20037;-23
2023/10/01 12:35:50;;;;;;;2.67;2.17;;;;;;;;;;4998321;28;20029;-19
2023/10/01 12:40:52;;;;;;;1.85;1.75;;;;;;;;;;4997955;28;20165;-19
2023/10/01 12:43:36;;;;;;;2.55;2.35;;;;;;;;;;4998011;28;20022;-21
2023/10/01 12:46:08;;;;;;;1.92;1.73;;;;;;;;;;4998404;28;20465;-20
2023/10/01 12:48:35;;;;;;;2.17;1.98;;;;;;;;;;4998389;28;20026;-19
2023/10/01 12:51:07;;;;;;;2.13;1.92;;;;;;;;;;4996700;28;20520;-20
2023/10/01 12:53:48;;;;;;;2.33;2.13;;;;;;;;;;4997942;28;20042;-19
2023/10/01 12:56:15;;;;;;;2.65;2.45;;;;;;;;;;4980477;28;20041;-22
2023/10/01 12:58:53;;;;;;;2.95;2.65;;;;;;;;;;4997852;28;20037;-17
2023/10/01 13:01:32;;;;;;;3.25;3.03;;;;;;;;;;4980440;28;20040;-19
2023/10/01 13:06:47;;;;;;;2.08;1.88;;;;;;;;;;4997781;28;20132;-20
2023/10/01 13:09:53;;;;;;;2.20;2.10;;;;;;;;;;4997368;28;20026;-21
2023/10/01 13:12:24;;;;;;;2.35;2.15;;;;;;;;;;4997577;28;20473;-19
2023/10/01 13:17:43;;;;;;;2.53;2.33;;;;;;;;;;4997597;28;20033;-21
2023/10/01 13:20:22;;;;;;;1.90;1.80;;;;;;;;;;4997217;28;20042;-20
2023/10/01 13:23:06;;;;;;;2.25;2.05;;;;;;;;;;4997407;28;20026;-22
2023/10/01 13:25:33;;;;;;;2.15;1.95;;;;;;;;;;4997375;28;20045;-19
2023/10/01 13:28:04;;;;;;;2.85;2.65;;;;;;;;;;4997280;28;20031;-19
2023/10/01 13:30:30;;;;;;;;;;;;;;;;;;4997481;28;20022;-19
2023/10/01 13:33:14;;;;;;;2.53;2.33;;;;;;;;;;4996859;28;19905;-20
2023/10/01 13:35:52;;;;;;;2.28;2.08;;;;;;;;;;4996942;28;20030;-20
2023/10/01 14:08:45;;;;;;;2.80;2.60;;;;;;;;;;4996262;28;20489;-20
2023/10/01 14:11:12;;;;;;;2.70;2.38;;;;;;;;;;4996571;28;20038;-19
2023/10/01 14:13:41;;;;;;;2.80;2.60;;;;;;;;;;4996720;28;20096;-19
2023/10/01 14:16:12;;;;;;;2.83;2.53;;;;;;;;;;4996187;28;20054;-19
2023/10/01 14:18:53;;;;;;;2.42;2.22;;;;;;;;;;4996703;28;20049;-21
2023/10/01 14:21:23;;;;;;;2.22;1.92;;;;;;;;;;4979005;28;20121;-18
2023/10/01 14:23:51;;;;;;;2.72;2.53;;;;;;;;;;4995922;28;20374;-17
2023/10/01 14:26:33;;;;;;;2.70;2.50;;;;;;;;;;4996257;28;20023;-17
2023/10/01 14:28:59;;;;;;;3.17;2.88;;;;;;;;;;4996505;28;20086;-22
2023/10/01 14:34:10;;;;;;;3.13;2.83;;;;;;;;;;4995814;28;20100;-21
2023/10/01 14:36:40;;;;;;;2.85;2.65;;;;;;;;;;4996109;28;20054;-20
2023/10/01 14:39:10;;;;;;;2.80;2.60;;;;;;;;;;4996260;28;20120;-19
2023/10/01 14:41:45;;;;;;;2.88;2.67;;;;;;;;;;4995732;28;20033;-18
2023/10/01 14:44:12;;;;;;;2.88;2.67;;;;;;;;;;4995608;28;20421;-19
2023/10/01 14:46:41;;;;;;;2.92;2.50;;;;;;;;;;4995648;28;20349;-19
2023/10/01 14:49:07;;;;;;;2.53;2.33;;;;;;;;;;4995865;28;20026;-21
2023/10/01 14:51:34;;;;;;;3.00;2.70;;;;;;;;;;4995883;28;20033;-19
2023/10/01 14:54:00;;;;;;;3.30;3.00;;;;;;;;;;4995468;28;20049;-19
2023/10/01 14:56:36;;;;;;;2.97;2.67;;;;;;;;;;4978828;28;20034;-20
2023/10/01 14:59:05;;;;;;;3.10;2.80;;;;;;;;;;4996024;28;20026;-19
2023/10/01 15:01:37;;;;;;;2.53;2.20;;;;;;;;;;4995407;28;20110;-20
2023/10/01 15:04:16;;;;;;;;;;;;;;;;;;4995512;28;20054;-21
2023/10/01 15:06:42;;;;;;;3.80;3.00;;;;;;;;;;4996172;28;19905;-19
2023/10/01 15:09:12;;;;;;;2.72;2.53;;;;;;;;;;4995585;28;20120;-20
2023/10/01 15:11:38;;;;;;;2.90;2.70;;;;;;;;;;4995350;28;20457;-21
2023/10/01 15:14:11;;;;;;;2.60;2.40;;;;;;;;;;4994885;28;20331;-20
2023/10/01 15:16:38;;;;;;;2.75;2.55;;;;;;;;;;4995296;28;20054;-20
2023/10/01 15:19:04;;;;;;;3.47;3.17;;;;;;;;;;4995215;28;20030;-23
2023/10/01 15:21:31;;;;;;;3.53;2.72;;;;;;;;;;4995262;28;20110;-23
2023/10/01 15:24:00;;;;;;;3.38;3.08;;;;;;;;;;4995022;28;20026;-22
2023/10/01 15:26:29;;;;;;;2.50;2.30;;;;;;;;;;4995427;28;20019;-17
2023/10/01 15:28:55;;;;;;;2.60;2.40;;;;;;;;;;4995132;28;20066;-19
2023/10/01 15:31:31;;;;;;;2.78;2.58;;;;;;;;;;4995681;28;20031;-17
2023/10/01 15:34:00;;;;;;;2.83;2.63;;;;;;;;;;4994982;28;20030;-19
2023/10/01 15:36:51;;;;;;;3.33;3.03;;;;;;;;;;4995096;28;20439;-21
2023/10/01 15:44:49;;;;;;;3.72;3.42;;;;;;;;;;4995284;28;20049;-18
2023/10/01 15:50:08;;;;;;;3.75;3.40;;;;;;;;;;4995290;28;20092;-18
2023/10/01 15:52:37;;;;;;;2.97;2.67;;;;;;;;;;4995163;28;20117;-19
2023/10/01 15:55:07;;;;;;;3.13;2.83;;;;;;;;;;4995390;28;20022;-19
2023/10/01 15:57:34;;;;;;;3.03;2.83;;;;;;;;;;4994893;28;20041;-21
2023/10/01 16:00:00;;;;;;;3.25;2.95;;;;;;;;;;4994869;28;20034;-22
2023/10/01 16:02:27;;;;;;;3.10;2.90;;;;;;;;;;4994805;28;20026;-20
2023/10/01 16:04:59;;;;;;;3.25;2.95;;;;;;;;;;4994664;28;20046;-20
2023/10/01 16:07:28;;;;;;;3.92;3.33;;;;;;;;;;4995138;28;20124;-24
2023/10/01 16:09:54;;;;;;;3.60;3.30;;;;;;;;;;4995385;28;20114;-21
2023/10/01 16:12:23;;;;;;;4.15;2.88;;;;;;;;;;4994745;28;20027;-19
2023/10/01 16:14:56;;;;;;;3.70;3.40;;;;;;;;;;4994788;28;20335;-18
2023/10/01 16:17:23;;;;;;;3.08;2.80;;;;;;;;;;4995081;28;20109;-22
2023/10/01 16:19:50;;;;;;;3.38;3.08;;;;;;;;;;4994676;28;20085;-20
2023/10/01 16:22:20;;;;;;;3.42;2.85;;;;;;;;;;4994568;28;20453;-21
2023/10/01 16:24:50;;;;;;;4.00;3.70;;;;;;;;;;4996171;28;20062;-19
2023/10/01 16:27:25;;;;;;;3.42;3.13;;;;;;;;;;4998526;28;20026;-19
2023/10/01 16:30:11;;;;;;;3.33;3.03;;;;;;;;;;4998165;28;20031;-20